Time;durP1;ratioP1;P1;durP2;ratioP2;P2;SDS_P1;SDS_P2;PMS_P1;PMS_P2;Temp;Humidity;BMP_temperature;BMP_pressure;BME280_temperature;BME280_humidity;BME280_pressure;Samples;Min_cycle;Max_cycle;Signal;HPM_P1;HPM_P2
2022/07/15 14:37:15;;;;;;;1.92;1.33;;;;;;;25.13;34.67;98682.28;2610791;27;20674;-78
2022/07/15 14:38:31;;;;;;;2.58;1.50;;;;;;;24.37;34.49;98681.34;2616577;28;20064;-77
2022/07/15 14:39:47;;;;;;;1.50;1.20;;;;;;;23.85;35.61;98689.06;2615324;28;20484;-78
2022/07/15 14:41:04;;;;;;;3.55;1.33;;;;;;;23.54;36.88;98692.31;2615268;28;20051;-77
2022/07/15 14:42:19;;;;;;;1.63;1.20;;;;;;;23.54;37.67;98697.66;2615971;28;20049;-78
2022/07/15 14:43:35;;;;;;;2.97;1.30;;;;;;;23.55;37.49;98691.34;2616052;28;20140;-78
2022/07/15 14:44:51;;;;;;;2.30;1.50;;;;;;;23.59;35.30;98691.94;2614973;28;20052;-77
2022/07/15 14:46:06;;;;;;;1.83;1.40;;;;;;;23.78;36.54;98691.34;2615656;28;20529;-83
2022/07/15 14:47:22;;;;;;;2.28;1.60;;;;;;;24.09;37.57;98682.72;2615774;28;20483;-79
2022/07/15 14:48:38;;;;;;;1.85;1.55;;;;;;;24.25;36.25;98687.69;2616652;28;20056;-77
2022/07/15 14:49:53;;;;;;;3.67;1.58;;;;;;;25.16;35.00;98676.69;2616294;28;20045;-78
2022/07/15 14:51:09;;;;;;;3.10;1.50;;;;;;;25.88;34.41;98674.13;2616919;28;20399;-77
2022/07/15 14:52:25;;;;;;;3.80;1.58;;;;;;;26.18;32.57;98672.41;2616170;28;20056;-78
2022/07/15 14:53:40;;;;;;;2.35;1.38;;;;;;;25.65;33.56;98668.09;2616434;28;20486;-78
2022/07/15 14:54:56;;;;;;;4.72;1.48;;;;;;;25.32;32.16;98668.16;2616607;28;20052;-78
2022/07/15 14:56:11;;;;;;;2.45;1.40;;;;;;;25.33;33.32;98664.50;2616125;28;20465;-78
2022/07/15 14:57:27;;;;;;;4.28;1.70;;;;;;;25.07;33.57;98666.75;2616252;28;20055;-78
2022/07/15 14:58:43;;;;;;;3.15;1.50;;;;;;;24.58;33.18;98664.47;2616089;28;20564;-78
2022/07/15 14:59:58;;;;;;;1.67;1.30;;;;;;;24.46;33.80;98669.03;2616494;28;20056;-77
2022/07/15 15:01:14;;;;;;;4.45;1.27;;;;;;;24.27;34.83;98664.34;2616396;28;20045;-77
2022/07/15 15:02:29;;;;;;;1.67;1.20;;;;;;;24.15;33.33;98658.16;2616578;28;20064;-77
2022/07/15 15:03:45;;;;;;;2.05;1.27;;;;;;;24.60;33.08;98657.22;2616378;28;20044;-77
2022/07/15 15:05:01;;;;;;;2.47;1.27;;;;;;;25.42;34.72;98662.03;2616534;28;20487;-77
2022/07/15 15:06:17;;;;;;;2.10;1.58;;;;;;;25.48;34.63;98664.16;2615897;28;20044;-78
2022/07/15 15:07:32;;;;;;;2.70;1.50;;;;;;;26.43;30.05;98662.13;2615648;28;20087;-77
2022/07/15 15:08:48;;;;;;;2.60;1.60;;;;;;;26.29;31.56;98660.72;2615689;28;20055;-77
2022/07/15 15:10:04;;;;;;;1.95;1.40;;;;;;;26.96;31.56;98656.53;2616113;28;20056;-78
2022/07/15 15:11:20;;;;;;;1.45;1.17;;;;;;;27.84;29.13;98660.88;2615949;28;20448;-78
2022/07/15 15:12:36;;;;;;;1.60;1.50;;;;;;;28.37;28.10;98655.78;2616127;28;20041;-79
2022/07/15 15:13:52;;;;;;;2.55;1.58;;;;;;;28.68;27.69;98660.78;2616155;28;20060;-77
2022/07/15 15:15:08;;;;;;;2.08;1.30;;;;;;;28.67;26.84;98661.81;2616195;28;20040;-79
2022/07/15 15:16:23;;;;;;;4.75;1.60;;;;;;;29.17;25.08;98645.03;2615653;28;20151;-78
2022/07/15 15:17:39;;;;;;;2.03;1.50;;;;;;;29.34;26.60;98655.09;2616279;28;20057;-80
2022/07/15 15:18:55;;;;;;;2.53;1.35;;;;;;;29.94;26.65;98654.25;2616061;28;20057;-78
2022/07/15 15:20:11;;;;;;;1.35;1.10;;;;;;;30.04;23.75;98656.03;2616342;28;20064;-78
2022/07/15 15:21:26;;;;;;;1.55;1.30;;;;;;;29.80;24.12;98655.72;2615774;28;20052;-78
2022/07/15 15:22:42;;;;;;;2.00;1.48;;;;;;;29.96;23.48;98652.25;2616340;28;20072;-78
2022/07/15 15:23:58;;;;;;;3.03;1.42;;;;;;;29.81;23.83;98648.47;2615734;28;20215;-78
2022/07/15 15:25:13;;;;;;;4.45;1.40;;;;;;;29.85;24.07;98648.00;2616331;28;20110;-78
2022/07/15 15:26:31;;;;;;;2.97;1.40;;;;;;;29.92;25.77;98650.88;2616133;28;20059;-78
2022/07/15 15:27:46;;;;;;;1.45;1.20;;;;;;;29.82;24.50;98651.00;2616353;28;20056;-78
2022/07/15 15:29:02;;;;;;;5.53;1.30;;;;;;;30.48;23.08;98644.13;2615645;28;20130;-78
2022/07/15 15:30:18;;;;;;;1.45;1.20;;;;;;;28.76;28.35;98639.28;2615888;28;20057;-78
2022/07/15 15:31:33;;;;;;;2.72;1.45;;;;;;;28.38;27.24;98649.41;2616036;28;20110;-78
2022/07/15 15:32:52;;;;;;;2.33;1.10;;;;;;;28.16;27.25;98649.66;2615796;28;20070;-78
2022/07/15 15:34:08;;;;;;;3.00;1.30;;;;;;;27.62;27.32;98657.53;2615997;28;20080;-77
2022/07/15 15:35:23;;;;;;;2.17;1.10;;;;;;;27.86;26.88;98658.88;2615761;28;20045;-78
2022/07/15 15:36:40;;;;;;;5.75;1.50;;;;;;;28.39;27.91;98653.78;2615420;28;20049;-79
2022/07/15 15:37:56;;;;;;;2.33;1.40;;;;;;;28.54;24.96;98651.38;2616042;28;20112;-78
2022/07/15 15:39:12;;;;;;;2.88;1.38;;;;;;;28.37;29.79;98651.22;2616045;28;20072;-78
2022/07/15 15:40:28;;;;;;;2.30;1.40;;;;;;;28.03;27.64;98647.28;2615759;28;20045;-78
2022/07/15 15:41:43;;;;;;;2.70;1.33;;;;;;;27.78;28.28;98660.44;2615965;28;20273;-78
2022/07/15 15:42:59;;;;;;;2.60;1.50;;;;;;;28.68;27.29;98647.31;2615588;28;20564;-78
2022/07/15 15:44:15;;;;;;;1.42;1.20;;;;;;;27.96;28.05;98653.44;2615940;28;20057;-78
2022/07/15 15:45:30;;;;;;;1.35;1.25;;;;;;;26.87;28.39;98652.84;2615885;28;20071;-78
2022/07/15 15:46:46;;;;;;;1.90;1.05;;;;;;;26.18;29.96;98650.94;2614918;28;20064;-77
2022/07/15 15:48:02;;;;;;;2.88;1.45;;;;;;;25.61;30.83;98647.91;2612132;28;20533;-77
2022/07/15 15:49:17;;;;;;;2.13;1.70;;;;;;;25.24;31.99;98654.59;2609386;28;20471;-77
2022/07/15 15:50:33;;;;;;;2.38;1.55;;;;;;;25.19;32.08;98652.31;2608810;28;20045;-77
2022/07/15 15:51:48;;;;;;;2.40;1.30;;;;;;;25.77;30.42;98656.31;2609111;28;20118;-78
2022/07/15 15:53:04;;;;;;;2.00;1.38;;;;;;;26.69;30.88;98655.41;2608759;28;20055;-78
2022/07/15 15:54:20;;;;;;;2.53;1.38;;;;;;;26.09;29.88;98644.53;2608999;28;20103;-77
2022/07/15 15:55:35;;;;;;;2.00;1.33;;;;;;;25.65;30.71;98646.66;2608568;28;20105;-79
2022/07/15 15:56:51;;;;;;;2.65;1.50;;;;;;;25.63;31.71;98648.63;2608518;28;20545;-77
2022/07/15 15:58:07;;;;;;;4.18;1.45;;;;;;;26.50;30.41;98640.97;2608724;28;20045;-78
2022/07/15 15:59:23;;;;;;;2.00;1.50;;;;;;;26.91;28.93;98644.38;2609300;28;20059;-78
2022/07/15 16:00:39;;;;;;;2.63;1.50;;;;;;;26.40;30.21;98640.09;2609162;28;20114;-77
2022/07/15 16:01:54;;;;;;;2.20;1.58;;;;;;;25.97;32.76;98640.25;2608812;28;20044;-78
2022/07/15 16:03:10;;;;;;;2.33;1.40;;;;;;;25.70;33.83;98639.03;2609115;28;20071;-77
2022/07/15 16:04:25;;;;;;;2.70;1.35;;;;;;;25.23;30.87;98637.66;2608377;28;20255;-77
2022/07/15 16:05:41;;;;;;;2.58;1.35;;;;;;;25.23;31.57;98643.03;2609243;28;20060;-77
2022/07/15 16:06:56;;;;;;;3.03;1.42;;;;;;;25.93;30.27;98636.16;2608747;28;20106;-77
2022/07/15 16:08:12;;;;;;;3.47;1.70;;;;;;;25.47;30.88;98644.56;2608804;28;20045;-78
2022/07/15 16:09:28;;;;;;;3.03;1.40;;;;;;;26.37;29.56;98633.19;2612512;28;20491;-77
2022/07/15 16:10:43;;;;;;;3.90;1.33;;;;;;;27.42;29.19;98635.22;2610404;28;20064;-78
2022/07/15 16:11:59;;;;;;;1.75;1.30;;;;;;;28.05;27.61;98634.53;2608452;28;20420;-78
2022/07/15 16:13:14;;;;;;;3.05;1.40;;;;;;;28.96;25.04;98633.78;2608761;28;20053;-77
2022/07/15 16:14:31;;;;;;;1.92;1.20;;;;;;;28.82;25.57;98632.47;2608761;28;20072;-77
2022/07/15 16:15:46;;;;;;;3.63;1.52;;;;;;;28.86;25.79;98632.00;2608489;28;20052;-79
2022/07/15 16:17:02;;;;;;;1.98;1.40;;;;;;;29.29;23.37;98625.91;2608569;28;20045;-77
2022/07/15 16:18:17;;;;;;;2.88;1.45;;;;;;;28.29;26.18;98622.38;2608463;28;20053;-78
2022/07/15 16:19:33;;;;;;;2.42;1.40;;;;;;;29.22;26.66;98623.00;2608474;28;20053;-79
2022/07/15 16:20:50;;;;;;;1.58;1.23;;;;;;;30.11;24.66;98620.09;2608934;28;20140;-78
2022/07/15 16:23:40;;;;;;;1.90;1.25;;;;;;;30.38;24.17;98625.38;2608459;28;20132;-78
2022/07/15 16:24:56;;;;;;;2.03;1.42;;;;;;;30.97;22.66;98624.41;2608995;28;20083;-78
2022/07/15 16:26:11;;;;;;;1.73;1.40;;;;;;;30.79;22.71;98622.75;2608384;28;20527;-78
2022/07/15 16:27:27;;;;;;;2.00;1.40;;;;;;;30.67;22.82;98619.53;2609151;28;20045;-79
2022/07/15 16:28:43;;;;;;;1.58;1.33;;;;;;;31.27;22.98;98619.34;2608088;28;20049;-81
2022/07/15 16:29:59;;;;;;;2.03;1.38;;;;;;;30.86;23.48;98621.03;2608588;28;20060;-78
2022/07/15 16:31:14;;;;;;;1.52;1.25;;;;;;;29.33;24.72;98619.19;2608619;28;20045;-78
2022/07/15 16:32:30;;;;;;;2.33;1.38;;;;;;;29.52;23.80;98622.72;2608279;28;20095;-78
2022/07/15 16:33:45;;;;;;;1.75;1.30;;;;;;;28.55;25.91;98612.69;2607969;28;20052;-78
2022/07/15 16:35:01;;;;;;;1.83;1.15;;;;;;;28.54;26.69;98619.06;2608523;28;20040;-78
2022/07/15 16:36:16;;;;;;;2.10;1.17;;;;;;;29.15;27.57;98614.69;2607986;28;20142;-80
2022/07/15 16:37:32;;;;;;;1.55;1.15;;;;;;;29.32;26.38;98617.50;2608968;28;20048;-82
2022/07/15 16:38:47;;;;;;;3.67;1.40;;;;;;;28.52;26.78;98616.56;2608472;28;20854;-79
2022/07/15 16:40:04;;;;;;;2.42;1.20;;;;;;;27.71;27.65;98620.84;2608078;28;20052;-77
2022/07/15 16:41:19;;;;;;;1.70;1.48;;;;;;;27.17;29.21;98616.03;2608351;28;20056;-78
2022/07/15 16:42:35;;;;;;;3.08;1.38;;;;;;;26.77;30.67;98626.84;2608700;28;20484;-77
2022/07/15 16:43:51;;;;;;;1.30;1.13;;;;;;;27.49;29.65;98621.03;2608491;28;20451;-78
2022/07/15 16:45:07;;;;;;;3.50;1.58;;;;;;;28.05;27.83;98618.38;2608214;28;20045;-78
2022/07/15 16:46:23;;;;;;;2.33;1.60;;;;;;;28.50;27.32;98615.88;2608677;28;20487;-78
2022/07/15 16:47:39;;;;;;;3.83;2.70;;;;;;;27.77;30.53;98620.25;2607330;28;20053;-77
2022/07/15 16:48:54;;;;;;;6.53;3.42;;;;;;;26.95;31.92;98617.22;2608502;28;20057;-78
2022/07/15 16:50:10;;;;;;;2.83;2.22;;;;;;;27.45;30.55;98619.66;2608695;28;20098;-78
2022/07/15 16:51:26;;;;;;;2.42;1.80;;;;;;;28.07;28.02;98615.56;2608904;28;20056;-77
2022/07/15 16:52:41;;;;;;;7.63;5.05;;;;;;;28.94;26.32;98615.06;2608238;28;20901;-77
2022/07/15 16:53:57;;;;;;;3.65;1.90;;;;;;;28.85;27.12;98616.84;2608626;28;20075;-78
2022/07/15 16:55:14;;;;;;;3.47;1.23;;;;;;;27.96;27.56;98616.63;2608187;28;20049;-78
2022/07/15 16:56:29;;;;;;;2.17;1.30;;;;;;;27.52;28.48;98621.72;2608054;28;20049;-78
2022/07/15 16:57:45;;;;;;;1.92;1.40;;;;;;;27.64;28.83;98628.66;2607645;28;20052;-77
2022/07/15 16:59:01;;;;;;;2.75;1.40;;;;;;;27.58;28.38;98623.88;2608192;28;20052;-78
2022/07/15 17:00:17;;;;;;;2.65;1.40;;;;;;;27.27;29.32;98622.25;2607163;28;20050;-78
2022/07/15 17:01:32;;;;;;;3.50;1.48;;;;;;;26.54;29.62;98623.59;2608223;28;20393;-77
2022/07/15 17:02:48;;;;;;;1.58;1.30;;;;;;;26.13;30.84;98620.13;2608124;28;20087;-77
2022/07/15 17:04:04;;;;;;;1.52;1.20;;;;;;;26.16;32.06;98619.84;2608063;28;20056;-79
2022/07/15 17:05:20;;;;;;;2.38;1.50;;;;;;;26.26;31.04;98619.88;2607687;28;20140;-77
2022/07/15 17:06:36;;;;;;;3.13;1.50;;;;;;;26.11;31.46;98625.63;2607573;28;20045;-77
2022/07/15 17:07:51;;;;;;;2.88;1.23;;;;;;;26.03;32.35;98623.63;2608381;28;20055;-78
2022/07/15 17:09:07;;;;;;;2.20;1.20;;;;;;;25.98;32.20;98623.19;2607635;28;20099;-77
2022/07/15 17:10:23;;;;;;;1.67;1.25;;;;;;;26.60;29.87;98616.78;2607520;28;20574;-77
2022/07/15 17:11:38;;;;;;;3.08;1.27;;;;;;;27.28;29.44;98621.25;2608528;28;20060;-79
2022/07/15 17:12:54;;;;;;;3.88;1.50;;;;;;;28.08;28.68;98627.16;2607554;28;20083;-77
2022/07/15 17:14:09;;;;;;;2.00;1.30;;;;;;;28.62;27.56;98619.16;2607855;28;20490;-78
2022/07/15 17:15:25;;;;;;;2.13;1.35;;;;;;;28.94;26.87;98616.94;2608175;28;20041;-78
2022/07/15 17:16:41;;;;;;;3.40;1.42;;;;;;;29.18;27.08;98622.47;2608311;28;20119;-78
2022/07/15 17:17:56;;;;;;;1.90;1.38;;;;;;;29.38;25.96;98626.78;2607657;28;20052;-78
2022/07/15 17:19:12;;;;;;;2.92;1.33;;;;;;;29.20;26.08;98622.31;2607687;28;20049;-78
2022/07/15 17:20:28;;;;;;;3.03;1.40;;;;;;;28.75;26.42;98622.31;2608110;28;20049;-78
2022/07/15 17:21:43;;;;;;;3.20;1.48;;;;;;;27.50;28.77;98629.97;2608083;28;20411;-77
2022/07/15 17:22:59;;;;;;;1.85;1.17;;;;;;;27.37;28.47;98626.75;2608599;28;20074;-78
2022/07/15 17:24:15;;;;;;;1.67;1.40;;;;;;;27.74;28.69;98624.09;2607189;28;20057;-80
2022/07/15 17:25:31;;;;;;;1.95;1.30;;;;;;;28.00;28.72;98623.38;2608454;28;20077;-78
2022/07/15 17:26:46;;;;;;;2.45;1.20;;;;;;;27.28;28.66;98621.25;2607781;28;20056;-77
2022/07/15 17:28:02;;;;;;;2.15;1.17;;;;;;;27.55;28.95;98624.19;2607276;28;20045;-79
2022/07/15 17:29:18;;;;;;;4.18;1.40;;;;;;;28.00;28.58;98620.69;2607343;28;20073;-79
2022/07/15 17:30:34;;;;;;;1.77;1.30;;;;;;;28.61;27.88;98615.59;2608097;28;20057;-80
2022/07/15 17:31:49;;;;;;;2.53;1.40;;;;;;;28.11;28.20;98618.78;2607910;28;20099;-81
2022/07/15 17:33:05;;;;;;;2.47;1.23;;;;;;;27.39;28.42;98620.25;2608430;28;20044;-80
2022/07/15 17:34:21;;;;;;;1.65;1.20;;;;;;;26.59;29.48;98628.53;2606731;28;20060;-80
2022/07/15 17:35:37;;;;;;;2.17;1.50;;;;;;;25.91;31.62;98628.28;2608388;28;20106;-79
2022/07/15 17:36:52;;;;;;;2.28;1.40;;;;;;;25.72;33.02;98631.72;2607911;28;20056;-79
2022/07/15 17:38:08;;;;;;;4.60;1.50;;;;;;;26.33;32.40;98623.69;2607697;28;20068;-79
2022/07/15 17:39:23;;;;;;;4.78;1.65;;;;;;;25.94;34.08;98621.75;2608291;28;21011;-79
2022/07/15 17:40:39;;;;;;;2.60;1.50;;;;;;;25.79;33.60;98622.16;2607923;28;20044;-80
2022/07/15 17:41:55;;;;;;;2.17;1.30;;;;;;;26.10;32.56;98618.56;2607531;28;20049;-80
2022/07/15 17:43:10;;;;;;;2.08;1.58;;;;;;;26.20;33.06;98616.78;2607246;28;20147;-80
2022/07/15 17:44:26;;;;;;;1.40;1.30;;;;;;;26.21;35.25;98614.94;2607418;28;20102;-83
2022/07/15 17:45:42;;;;;;;4.38;1.55;;;;;;;25.78;36.37;98615.09;2607941;28;20498;-79
2022/07/15 17:46:58;;;;;;;3.00;1.77;;;;;;;26.23;34.08;98618.31;2608142;28;20045;-79
2022/07/15 17:48:13;;;;;;;3.28;1.70;;;;;;;26.43;33.15;98611.13;2607376;28;20052;-80
2022/07/15 17:49:30;;;;;;;1.73;1.20;;;;;;;26.85;32.33;98615.38;2607294;28;20080;-79
2022/07/15 17:50:46;;;;;;;2.55;1.45;;;;;;;26.77;33.89;98621.47;2607370;28;20399;-79
2022/07/15 17:52:02;;;;;;;2.78;1.55;;;;;;;26.47;34.16;98615.25;2608249;28;20048;-80
2022/07/15 17:53:18;;;;;;;2.70;1.50;;;;;;;25.88;35.67;98620.47;2607470;28;20075;-79
2022/07/15 17:54:34;;;;;;;5.03;1.65;;;;;;;25.57;37.57;98619.69;2607575;28;20515;-83
2022/07/15 17:55:49;;;;;;;2.13;1.42;;;;;;;24.98;36.07;98617.50;2607069;28;20538;-80
2022/07/15 17:57:05;;;;;;;3.28;1.45;;;;;;;24.09;37.88;98621.22;2607718;28;20071;-82
2022/07/15 17:58:21;;;;;;;2.80;1.40;;;;;;;23.56;39.28;98618.22;2607800;28;20056;-87
2022/07/15 17:59:37;;;;;;;2.10;1.40;;;;;;;22.97;40.87;98620.06;2608118;28;20048;-80
2022/07/15 18:00:53;;;;;;;3.53;1.40;;;;;;;22.78;41.48;98625.09;2607798;28;20054;-79
2022/07/15 18:02:09;;;;;;;1.48;1.38;;;;;;;22.56;42.68;98621.38;2607734;28;20041;-81
2022/07/15 18:03:25;;;;;;;2.70;1.20;;;;;;;22.12;44.04;98629.84;2607664;28;20403;-79
2022/07/15 18:04:41;;;;;;;2.35;1.42;;;;;;;22.22;44.50;98624.69;2607616;28;20128;-79
2022/07/15 18:05:57;;;;;;;2.45;1.30;;;;;;;22.53;44.62;98625.13;2607758;28;20052;-79
2022/07/15 18:07:12;;;;;;;3.22;1.40;;;;;;;22.54;44.01;98628.66;2607374;28;20094;-79
2022/07/15 18:08:29;;;;;;;2.85;1.52;;;;;;;22.47;43.73;98627.34;2607606;28;20072;-83
2022/07/15 18:09:44;;;;;;;2.58;1.45;;;;;;;22.74;42.70;98623.63;2607371;28;20487;-79
2022/07/15 18:11:00;;;;;;;2.42;1.48;;;;;;;22.90;41.75;98626.81;2607034;28;20197;-80
2022/07/15 18:12:15;;;;;;;2.60;1.48;;;;;;;22.91;40.51;98625.00;2607797;28;20046;-79
2022/07/15 18:13:31;;;;;;;1.88;1.45;;;;;;;23.18;40.25;98618.50;2607683;28;20048;-78
2022/07/15 18:14:47;;;;;;;2.35;1.58;;;;;;;23.37;41.81;98625.97;2607524;28;20044;-79
2022/07/15 18:16:03;;;;;;;2.47;1.50;;;;;;;23.42;39.74;98624.66;2607789;28;20514;-78
2022/07/15 18:17:18;;;;;;;3.78;1.50;;;;;;;23.65;39.06;98618.47;2606797;28;20888;-84
2022/07/15 18:18:37;;;;;;;2.10;1.50;;;;;;;23.55;40.00;98629.88;2607961;28;20056;-83
2022/07/15 18:19:52;;;;;;;1.90;1.40;;;;;;;23.59;41.15;98627.81;2608021;28;20041;-79
2022/07/15 18:21:09;;;;;;;2.35;1.63;;;;;;;23.47;40.86;98623.44;2608177;28;20410;-79
2022/07/15 18:22:24;;;;;;;1.80;1.60;;;;;;;23.52;39.44;98624.78;2607208;28;20099;-79
2022/07/15 18:23:40;;;;;;;5.57;1.55;;;;;;;23.16;41.28;98623.97;2607755;28;20072;-79
2022/07/15 18:24:55;;;;;;;1.90;1.17;;;;;;;23.24;40.07;98634.91;2607525;28;20045;-79
2022/07/15 18:26:11;;;;;;;1.60;1.40;;;;;;;23.09;39.18;98630.78;2607414;28;20094;-79
2022/07/15 18:27:27;;;;;;;1.48;1.25;;;;;;;22.86;41.00;98628.03;2607400;28;20053;-78
2022/07/15 18:28:42;;;;;;;2.33;1.35;;;;;;;22.61;41.74;98632.53;2607308;28;20045;-78
2022/07/15 18:29:58;;;;;;;2.28;1.50;;;;;;;22.28;43.76;98624.25;2607197;28;20473;-80
2022/07/15 18:31:14;;;;;;;2.50;1.38;;;;;;;22.13;42.74;98628.91;2607436;28;20423;-79
2022/07/15 18:32:29;;;;;;;2.92;1.80;;;;;;;22.32;42.30;98627.53;2606236;28;20055;-86
2022/07/15 18:33:45;;;;;;;2.85;1.50;;;;;;;22.18;43.83;98625.03;2607558;28;20065;-79
2022/07/15 18:35:00;;;;;;;2.97;1.52;;;;;;;21.70;45.61;98626.66;2607809;28;20049;-79
2022/07/15 18:36:16;;;;;;;1.67;1.30;;;;;;;21.27;46.11;98627.81;2607348;28;20110;-77
2022/07/15 18:37:31;;;;;;;3.58;1.60;;;;;;;21.20;48.44;98629.22;2607331;28;20052;-77
2022/07/15 18:38:47;;;;;;;2.80;1.65;;;;;;;20.81;50.10;98623.84;2607389;28;20052;-77
2022/07/15 18:40:04;;;;;;;3.13;1.48;;;;;;;20.28;53.39;98630.78;2607444;28;20045;-77
2022/07/15 18:41:20;;;;;;;2.33;1.50;;;;;;;20.11;54.42;98629.22;2607056;28;20106;-77
2022/07/15 18:42:36;;;;;;;1.58;1.40;;;;;;;20.16;53.82;98620.94;2608024;28;20049;-77
2022/07/15 18:43:52;;;;;;;3.60;1.60;;;;;;;19.98;55.16;98630.97;2607692;28;20079;-78
2022/07/15 18:45:07;;;;;;;2.92;1.52;;;;;;;19.64;55.56;98625.09;2608001;28;20083;-77
2022/07/15 18:46:26;;;;;;;2.67;1.60;;;;;;;19.55;57.00;98627.38;2607144;28;20114;-77
2022/07/15 18:47:41;;;;;;;1.95;1.45;;;;;;;19.54;57.90;98630.13;2606612;28;20052;-77
2022/07/15 18:48:57;;;;;;;2.75;1.48;;;;;;;19.64;55.94;98635.72;2607016;28;20146;-79
2022/07/15 18:50:12;;;;;;;1.92;1.65;;;;;;;19.40;58.19;98638.94;2607576;28;20537;-77
2022/07/15 18:51:28;;;;;;;4.95;1.70;;;;;;;19.20;57.95;98635.72;2606731;28;20067;-76
2022/07/15 18:52:44;;;;;;;3.25;1.60;;;;;;;19.13;57.43;98632.56;2607423;28;20318;-76
2022/07/15 18:53:59;;;;;;;3.50;1.65;;;;;;;18.99;58.60;98633.38;2607163;28;20049;-77
2022/07/15 18:55:14;;;;;;;2.72;1.67;;;;;;;18.71;58.70;98629.69;2607646;28;20419;-77
2022/07/15 18:56:31;;;;;;;2.83;1.83;;;;;;;18.43;61.15;98636.59;2607433;28;20502;-76
2022/07/15 18:57:46;;;;;;;3.65;1.73;;;;;;;18.29;59.98;98642.69;2607631;28;20040;-77
2022/07/15 18:59:01;;;;;;;1.90;1.33;;;;;;;17.86;62.79;98640.59;2607090;28;20506;-76
2022/07/15 19:00:17;;;;;;;2.22;1.58;;;;;;;17.97;61.20;98641.81;2607562;28;20052;-76
2022/07/15 19:01:34;;;;;;;2.58;1.67;;;;;;;17.80;60.38;98651.53;2606511;28;20052;-77
2022/07/15 19:02:49;;;;;;;2.97;1.92;;;;;;;17.69;61.53;98653.91;2607093;28;20123;-76
2022/07/15 19:04:05;;;;;;;2.25;1.70;;;;;;;17.53;64.33;98656.50;2607342;28;20603;-78
2022/07/15 19:05:20;;;;;;;3.75;2.30;;;;;;;17.50;64.54;98657.56;2607033;28;20111;-76
2022/07/15 19:06:36;;;;;;;2.08;1.50;;;;;;;17.44;64.79;98655.22;2607469;28;20528;-76
2022/07/15 19:07:52;;;;;;;4.72;1.95;;;;;;;17.34;65.07;98649.56;2607726;28;20047;-77
2022/07/15 19:09:08;;;;;;;3.25;1.67;;;;;;;17.19;66.02;98646.78;2607534;28;20049;-77
2022/07/15 19:10:23;;;;;;;3.88;1.95;;;;;;;17.17;67.33;98647.78;2607411;28;20094;-76
2022/07/15 19:11:39;;;;;;;3.97;2.00;;;;;;;17.28;65.58;98656.03;2606746;28;20061;-76
2022/07/15 19:12:54;;;;;;;4.03;1.60;;;;;;;17.29;66.51;98660.38;2606806;28;20087;-77
2022/07/15 19:14:10;;;;;;;3.83;2.25;;;;;;;17.15;67.69;98655.81;2607106;28;20146;-76
2022/07/15 19:15:26;;;;;;;4.60;1.70;;;;;;;17.07;67.48;98650.91;2607198;28;20057;-76
2022/07/15 19:16:41;;;;;;;2.88;1.85;;;;;;;17.07;68.36;98658.84;2607652;28;20057;-76
2022/07/15 19:17:57;;;;;;;2.58;1.80;;;;;;;16.85;71.57;98660.84;2607405;28;20415;-76
2022/07/15 19:19:13;;;;;;;4.95;1.90;;;;;;;16.71;74.64;98659.75;2607431;28;20072;-76
2022/07/15 19:20:29;;;;;;;2.45;1.77;;;;;;;16.66;74.44;98667.06;2606476;28;21004;-81
2022/07/15 19:21:45;;;;;;;2.78;1.77;;;;;;;16.84;72.12;98667.94;2600697;28;20060;-77
2022/07/15 19:23:01;;;;;;;2.67;1.80;;;;;;;16.90;70.26;98672.03;2606810;28;20056;-78
2022/07/15 19:24:16;;;;;;;2.75;1.80;;;;;;;16.85;69.95;98666.13;2609441;28;20119;-78
2022/07/15 19:25:33;;;;;;;3.08;1.95;;;;;;;16.63;72.18;98665.41;2609333;28;20072;-76
2022/07/15 19:26:50;;;;;;;3.85;1.92;;;;;;;16.71;72.64;98667.66;2608437;28;20120;-76
2022/07/15 19:28:06;;;;;;;3.47;2.00;;;;;;;16.67;71.67;98668.75;2608416;28;20057;-76
2022/07/15 19:29:22;;;;;;;4.93;1.90;;;;;;;16.51;75.42;98673.94;2609448;28;20045;-76
2022/07/15 19:30:38;;;;;;;2.40;1.83;;;;;;;16.40;75.81;98673.59;2609509;28;20053;-79
2022/07/15 19:31:54;;;;;;;3.20;1.90;;;;;;;16.33;75.70;98678.31;2608919;28;20487;-78
2022/07/15 19:33:09;;;;;;;2.40;1.77;;;;;;;16.31;76.39;98683.69;2609249;28;20045;-76
2022/07/15 19:34:27;;;;;;;6.40;2.20;;;;;;;16.13;77.78;98681.91;2609483;28;20060;-76
2022/07/15 19:35:43;;;;;;;4.40;1.98;;;;;;;16.00;80.37;98681.63;2609042;28;20580;-76
2022/07/15 19:36:59;;;;;;;2.90;1.95;;;;;;;15.89;81.46;98685.63;2608531;28;20064;-76
2022/07/15 19:38:15;;;;;;;4.80;2.50;;;;;;;15.88;80.75;98685.69;2608954;28;20048;-76
2022/07/15 19:39:30;;;;;;;3.38;2.00;;;;;;;15.75;83.34;98688.88;2608379;28;20282;-76
2022/07/15 19:40:46;;;;;;;4.50;2.30;;;;;;;15.76;83.34;98692.34;2608248;28;20076;-76
2022/07/15 19:42:02;;;;;;;3.47;2.20;;;;;;;15.66;85.80;98695.44;2608595;28;20118;-77
2022/07/15 19:43:18;;;;;;;3.92;2.35;;;;;;;15.58;87.33;98689.63;2608197;28;20954;-76
2022/07/15 19:44:34;;;;;;;4.80;2.45;;;;;;;15.52;88.46;98690.75;2606800;28;20053;-76
2022/07/15 19:45:50;;;;;;;5.43;2.15;;;;;;;15.48;89.19;98688.31;2604315;28;20132;-76
2022/07/15 19:47:06;;;;;;;5.72;2.10;;;;;;;15.44;89.17;98697.28;2607739;28;20052;-77
2022/07/15 19:48:22;;;;;;;2.85;2.15;;;;;;;15.34;90.84;98696.84;2608546;28;20084;-77
2022/07/15 19:49:37;;;;;;;3.25;2.08;;;;;;;15.24;91.23;98699.03;2607652;28;20056;-76
2022/07/15 19:50:53;;;;;;;5.70;2.17;;;;;;;15.08;93.70;98704.94;2608652;28;20107;-78
2022/07/15 19:52:09;;;;;;;4.60;2.42;;;;;;;15.11;94.13;98698.69;2608356;28;20049;-76
2022/07/15 19:53:24;;;;;;;3.97;2.10;;;;;;;15.04;95.30;98698.09;2608456;28;20041;-76
2022/07/15 19:54:40;;;;;;;3.25;2.08;;;;;;;15.07;94.89;98702.38;2608529;28;20060;-76
2022/07/15 19:55:56;;;;;;;6.50;2.05;;;;;;;15.04;94.45;98700.72;2608302;28;20045;-77
2022/07/15 19:57:12;;;;;;;2.50;2.10;;;;;;;15.03;94.25;98700.81;2607850;28;20053;-76
2022/07/15 19:58:27;;;;;;;4.95;2.03;;;;;;;14.96;95.98;98705.47;2608326;28;20084;-76
2022/07/15 20:01:17;;;;;;;3.95;2.25;;;;;;;14.83;96.13;98708.63;2608744;28;20106;-77
2022/07/15 20:02:33;;;;;;;5.35;2.35;;;;;;;14.78;96.52;98705.28;2608802;28;20894;-76
2022/07/15 20:03:48;;;;;;;4.55;2.33;;;;;;;14.60;97.13;98703.38;2608311;28;20418;-76
2022/07/15 20:05:04;;;;;;;2.67;2.00;;;;;;;14.60;97.10;98700.75;2609225;28;20529;-76
2022/07/15 20:06:20;;;;;;;3.58;2.17;;;;;;;14.52;97.60;98695.78;2608849;28;20045;-76
2022/07/15 20:07:35;;;;;;;4.68;2.15;;;;;;;14.51;97.35;98700.19;2609217;28;20542;-76
2022/07/15 20:08:51;;;;;;;2.83;2.10;;;;;;;14.49;97.70;98695.91;2608455;28;20401;-76
2022/07/15 20:10:07;;;;;;;3.22;1.85;;;;;;;14.53;97.65;98703.66;2608632;28;20044;-76
2022/07/15 20:11:23;;;;;;;2.15;1.90;;;;;;;14.57;98.19;98703.53;2608980;28;20114;-76
2022/07/15 20:12:39;;;;;;;2.78;2.10;;;;;;;14.47;98.53;98713.56;2608549;28;20478;-76
2022/07/15 20:13:56;;;;;;;2.80;2.10;;;;;;;14.40;97.62;98702.41;2608802;28;20053;-76
2022/07/15 20:15:17;;;;;;;3.15;1.85;;;;;;;14.38;97.87;98707.72;2608481;28;20155;-76
2022/07/15 20:16:33;;;;;;;9.27;2.65;;;;;;;14.33;97.15;98708.84;2609476;28;20049;-76
2022/07/15 20:17:53;;;;;;;3.92;2.22;;;;;;;14.25;98.29;98709.13;2607973;28;20049;-76
2022/07/15 20:19:08;;;;;;;3.70;2.10;;;;;;;14.26;100.00;98705.56;2608367;28;20040;-77
2022/07/15 20:20:26;;;;;;;2.10;1.88;;;;;;;14.23;100.00;98708.34;2608434;28;20119;-76
2022/07/15 20:21:43;;;;;;;2.97;2.00;;;;;;;14.20;100.00;98706.66;2608745;28;20393;-76
2022/07/15 20:22:59;;;;;;;2.97;1.98;;;;;;;14.22;100.00;98706.63;2608762;28;20130;-76
2022/07/15 20:24:15;;;;;;;5.15;2.40;;;;;;;14.16;100.00;98714.75;2608595;28;20434;-76
2022/07/15 20:25:30;;;;;;;3.67;2.22;;;;;;;14.15;100.00;98711.25;2608789;28;20098;-76
2022/07/15 20:26:46;;;;;;;2.78;2.20;;;;;;;14.18;100.00;98707.63;2608243;28;20044;-76
2022/07/15 20:28:02;;;;;;;3.60;2.50;;;;;;;14.07;100.00;98710.69;2608326;28;20118;-76
2022/07/15 20:29:17;;;;;;;3.72;2.25;;;;;;;14.03;100.00;98715.22;2608009;28;20418;-76
2022/07/15 20:30:33;;;;;;;2.78;2.05;;;;;;;13.98;100.00;98711.91;2606661;28;20051;-76
2022/07/15 20:31:50;;;;;;;3.08;2.17;;;;;;;13.99;100.00;98718.88;2600836;28;20502;-76
2022/07/15 20:33:06;;;;;;;4.22;2.30;;;;;;;13.94;100.00;98716.41;2605787;28;20499;-76
2022/07/15 20:34:21;;;;;;;2.63;2.17;;;;;;;13.99;100.00;98718.88;2607221;28;20340;-78
2022/07/15 20:35:39;;;;;;;3.22;2.30;;;;;;;13.95;100.00;98723.38;2607491;28;20518;-78
2022/07/15 20:36:55;;;;;;;2.92;2.22;;;;;;;13.95;100.00;98725.19;2607396;28;20539;-78